sensor_id;sensor_type;location;lat;lon;timestamp;pressure;altitude;pressure_sealevel;temperature;humidity
67109;BME280;54027;50.786;7.058;2023-05-14T00:02:12;101371.50;;;10.80;100.00
67109;BME280;54027;50.786;7.058;2023-05-14T00:04:38;101373.22;;;10.76;100.00
67109;BME280;54027;50.786;7.058;2023-05-14T00:07:04;101368.03;;;10.73;100.00
67109;BME280;54027;50.786;7.058;2023-05-14T00:09:31;101368.03;;;10.72;100.00
67109;BME280;54027;50.786;7.058;2023-05-14T00:11:56;101368.91;;;10.71;100.00
67109;BME280;54027;50.786;7.058;2023-05-14T00:14:22;101364.59;;;10.67;100.00
67109;BME280;54027;50.786;7.058;2023-05-14T00:16:48;101366.31;;;10.65;100.00
67109;BME280;54027;50.786;7.058;2023-05-14T00:19:13;101374.91;;;10.62;100.00
67109;BME280;54027;50.786;7.058;2023-05-14T00:21:39;101373.19;;;10.63;100.00
67109;BME280;54027;50.786;7.058;2023-05-14T00:24:05;101370.59;;;10.63;100.00
67109;BME280;54027;50.786;7.058;2023-05-14T00:26:30;101375.78;;;10.63;100.00
67109;BME280;54027;50.786;7.058;2023-05-14T00:28:55;101367.19;;;10.59;100.00
67109;BME280;54027;50.786;7.058;2023-05-14T00:31:21;101370.59;;;10.55;100.00
67109;BME280;54027;50.786;7.058;2023-05-14T00:33:46;101363.72;;;10.50;100.00
67109;BME280;54027;50.786;7.058;2023-05-14T00:36:11;101366.28;;;10.44;100.00
67109;BME280;54027;50.786;7.058;2023-05-14T00:38:37;101359.38;;;10.40;100.00
67109;BME280;54027;50.786;7.058;2023-05-14T00:41:02;101357.66;;;10.34;100.00
67109;BME280;54027;50.786;7.058;2023-05-14T00:43:28;101361.09;;;10.32;100.00
67109;BME280;54027;50.786;7.058;2023-05-14T00:45:54;101353.34;;;10.29;100.00
67109;BME280;54027;50.786;7.058;2023-05-14T00:48:20;101356.78;;;10.26;100.00
67109;BME280;54027;50.786;7.058;2023-05-14T00:50:48;101349.84;;;10.19;100.00
67109;BME280;54027;50.786;7.058;2023-05-14T00:53:13;101350.72;;;10.13;100.00
67109;BME280;54027;50.786;7.058;2023-05-14T00:55:41;101357.59;;;10.08;100.00
67109;BME280;54027;50.786;7.058;2023-05-14T00:58:09;101352.41;;;10.04;100.00
67109;BME280;54027;50.786;7.058;2023-05-14T01:00:36;101351.53;;;10.02;100.00
67109;BME280;54027;50.786;7.058;2023-05-14T01:03:02;101356.69;;;9.99;100.00
67109;BME280;54027;50.786;7.058;2023-05-14T01:05:38;101354.97;;;9.99;100.00
67109;BME280;54027;50.786;7.058;2023-05-14T01:10:44;101355.81;;;9.95;100.00
67109;BME280;54027;50.786;7.058;2023-05-14T01:15:48;101361.00;;;9.94;100.00
67109;BME280;54027;50.786;7.058;2023-05-14T01:18:17;101355.81;;;9.94;100.00
67109;BME280;54027;50.786;7.058;2023-05-14T01:20:44;101352.34;;;9.92;100.00
67109;BME280;54027;50.786;7.058;2023-05-14T01:23:10;101354.06;;;9.90;100.00
67109;BME280;54027;50.786;7.058;2023-05-14T01:25:35;101355.81;;;9.88;100.00
67109;BME280;54027;50.786;7.058;2023-05-14T01:28:12;101350.63;;;9.88;100.00
67109;BME280;54027;50.786;7.058;2023-05-14T01:30:44;101353.19;;;9.86;100.00
67109;BME280;54027;50.786;7.058;2023-05-14T01:33:15;101345.47;;;9.85;100.00
67109;BME280;54027;50.786;7.058;2023-05-14T01:35:43;101344.56;;;9.81;100.00
67109;BME280;54027;50.786;7.058;2023-05-14T01:38:11;101343.72;;;9.79;100.00
67109;BME280;54027;50.786;7.058;2023-05-14T01:40:38;101337.69;;;9.76;100.00
67109;BME280;54027;50.786;7.058;2023-05-14T01:43:04;101344.53;;;9.72;100.00
67109;BME280;54027;50.786;7.058;2023-05-14T01:45:30;101341.09;;;9.72;100.00
67109;BME280;54027;50.786;7.058;2023-05-14T01:47:56;101336.78;;;9.69;100.00
67109;BME280;54027;50.786;7.058;2023-05-14T01:50:21;101341.06;;;9.68;100.00
67109;BME280;54027;50.786;7.058;2023-05-14T01:52:47;101337.63;;;9.66;100.00
67109;BME280;54027;50.786;7.058;2023-05-14T01:55:13;101334.16;;;9.61;100.00
67109;BME280;54027;50.786;7.058;2023-05-14T01:57:39;101337.59;;;9.60;100.00
67109;BME280;54027;50.786;7.058;2023-05-14T02:00:05;101337.59;;;9.60;100.00
67109;BME280;54027;50.786;7.058;2023-05-14T02:02:30;101330.72;;;9.59;100.00
67109;BME280;54027;50.786;7.058;2023-05-14T02:04:56;101330.72;;;9.59;100.00
67109;BME280;54027;50.786;7.058;2023-05-14T02:07:21;101328.13;;;9.58;100.00
67109;BME280;54027;50.786;7.058;2023-05-14T02:09:47;101330.66;;;9.56;100.00
67109;BME280;54027;50.786;7.058;2023-05-14T02:12:12;101320.31;;;9.53;100.00
67109;BME280;54027;50.786;7.058;2023-05-14T02:14:37;101323.75;;;9.51;100.00
67109;BME280;54027;50.786;7.058;2023-05-14T02:17:03;101322.88;;;9.50;100.00
67109;BME280;54027;50.786;7.058;2023-05-14T02:19:29;101320.28;;;9.47;100.00
67109;BME280;54027;50.786;7.058;2023-05-14T02:21:54;101321.16;;;9.43;100.00
67109;BME280;54027;50.786;7.058;2023-05-14T02:24:20;101325.44;;;9.40;100.00
67109;BME280;54027;50.786;7.058;2023-05-14T02:26:45;101322.81;;;9.35;100.00
67109;BME280;54027;50.786;7.058;2023-05-14T02:29:11;101322.78;;;9.32;100.00
67109;BME280;54027;50.786;7.058;2023-05-14T02:31:36;101320.19;;;9.29;100.00
67109;BME280;54027;50.786;7.058;2023-05-14T02:34:02;101311.59;;;9.27;100.00
67109;BME280;54027;50.786;7.058;2023-05-14T02:36:28;101309.03;;;9.26;100.00
67109;BME280;54027;50.786;7.058;2023-05-14T02:38:53;101315.00;;;9.23;100.00
67109;BME280;54027;50.786;7.058;2023-05-14T02:41:18;101310.69;;;9.21;100.00
67109;BME280;54027;50.786;7.058;2023-05-14T02:43:44;101314.13;;;9.20;100.00
67109;BME280;54027;50.786;7.058;2023-05-14T02:46:10;101305.53;;;9.16;100.00
67109;BME280;54027;50.786;7.058;2023-05-14T02:48:35;101316.66;;;9.15;100.00
67109;BME280;54027;50.786;7.058;2023-05-14T02:51:01;101308.06;;;9.13;100.00
67109;BME280;54027;50.786;7.058;2023-05-14T02:53:26;101306.31;;;9.07;100.00
67109;BME280;54027;50.786;7.058;2023-05-14T02:55:52;101308.03;;;9.07;100.00
67109;BME280;54027;50.786;7.058;2023-05-14T02:58:17;101307.19;;;9.05;100.00
67109;BME280;54027;50.786;7.058;2023-05-14T03:00:43;101306.28;;;9.03;100.00
67109;BME280;54027;50.786;7.058;2023-05-14T03:03:09;101309.72;;;9.02;100.00
67109;BME280;54027;50.786;7.058;2023-05-14T03:05:34;101302.00;;;9.02;100.00
67109;BME280;54027;50.786;7.058;2023-05-14T03:07:59;101308.84;;;9.03;100.00
67109;BME280;54027;50.786;7.058;2023-05-14T03:10:25;101304.56;;;9.02;100.00
67109;BME280;54027;50.786;7.058;2023-05-14T03:12:50;101295.94;;;8.98;100.00
67109;BME280;54027;50.786;7.058;2023-05-14T03:15:16;101306.25;;;9.00;100.00
67109;BME280;54027;50.786;7.058;2023-05-14T03:17:41;101297.63;;;8.96;100.00
67109;BME280;54027;50.786;7.058;2023-05-14T03:20:07;101297.59;;;8.89;100.00
67109;BME280;54027;50.786;7.058;2023-05-14T03:22:32;101296.72;;;8.84;100.00
67109;BME280;54027;50.786;7.058;2023-05-14T03:24:58;101300.09;;;8.81;100.00
67109;BME280;54027;50.786;7.058;2023-05-14T03:27:23;101288.91;;;8.76;100.00
67109;BME280;54027;50.786;7.058;2023-05-14T03:29:48;101294.06;;;8.76;100.00
67109;BME280;54027;50.786;7.058;2023-05-14T03:32:14;101292.34;;;8.74;100.00
67109;BME280;54027;50.786;7.058;2023-05-14T03:34:39;101296.63;;;8.72;100.00
67109;BME280;54027;50.786;7.058;2023-05-14T03:37:05;101306.91;;;8.69;100.00
67109;BME280;54027;50.786;7.058;2023-05-14T03:39:30;101308.59;;;8.65;100.00
67109;BME280;54027;50.786;7.058;2023-05-14T03:41:55;101301.69;;;8.64;100.00
67109;BME280;54027;50.786;7.058;2023-05-14T03:44:23;101308.59;;;8.65;100.00
67109;BME280;54027;50.786;7.058;2023-05-14T03:46:48;101306.94;;;8.72;100.00
67109;BME280;54027;50.786;7.058;2023-05-14T03:49:14;101312.94;;;8.74;100.00
67109;BME280;54027;50.786;7.058;2023-05-14T03:51:39;101309.53;;;8.76;100.00
67109;BME280;54027;50.786;7.058;2023-05-14T03:54:05;101304.41;;;8.78;100.00
67109;BME280;54027;50.786;7.058;2023-05-14T03:56:31;101303.53;;;8.79;100.00
67109;BME280;54027;50.786;7.058;2023-05-14T03:58:56;101313.84;;;8.79;100.00
67109;BME280;54027;50.786;7.058;2023-05-14T04:01:21;101304.41;;;8.78;100.00
67109;BME280;54027;50.786;7.058;2023-05-14T04:03:47;101308.69;;;8.77;100.00
67109;BME280;54027;50.786;7.058;2023-05-14T04:06:12;101304.41;;;8.78;100.00
67109;BME280;54027;50.786;7.058;2023-05-14T04:08:38;101308.63;;;8.73;100.00
67109;BME280;54027;50.786;7.058;2023-05-14T04:11:03;101301.75;;;8.70;100.00
67109;BME280;54027;50.786;7.058;2023-05-14T04:13:28;101309.50;;;8.73;100.00
67109;BME280;54027;50.786;7.058;2023-05-14T04:15:54;101306.09;;;8.77;100.00
67109;BME280;54027;50.786;7.058;2023-05-14T04:18:19;101301.88;;;8.84;100.00
67109;BME280;54027;50.786;7.058;2023-05-14T04:20:45;101306.13;;;8.82;100.00
67109;BME280;54027;50.786;7.058;2023-05-14T04:23:10;101304.44;;;8.85;100.00
67109;BME280;54027;50.786;7.058;2023-05-14T04:25:35;101306.19;;;8.91;100.00
67109;BME280;54027;50.786;7.058;2023-05-14T04:28:01;101301.06;;;8.92;100.00
67109;BME280;54027;50.786;7.058;2023-05-14T04:30:26;101301.09;;;8.98;100.00
67109;BME280;54027;50.786;7.058;2023-05-14T04:32:52;101302.88;;;9.04;100.00
67109;BME280;54027;50.786;7.058;2023-05-14T04:35:17;101298.59;;;9.09;100.00
67109;BME280;54027;50.786;7.058;2023-05-14T04:37:42;101294.31;;;9.12;100.00
67109;BME280;54027;50.786;7.058;2023-05-14T04:40:08;101296.94;;;9.22;100.00
67109;BME280;54027;50.786;7.058;2023-05-14T04:42:37;101299.53;;;9.22;100.00
67109;BME280;54027;50.786;7.058;2023-05-14T04:45:04;101296.91;;;9.17;100.00
67109;BME280;54027;50.786;7.058;2023-05-14T04:47:31;101300.34;;;9.13;100.00
67109;BME280;54027;50.786;7.058;2023-05-14T04:49:56;101306.41;;;9.24;100.00
67109;BME280;54027;50.786;7.058;2023-05-14T04:52:22;101309.06;;;9.36;100.00
67109;BME280;54027;50.786;7.058;2023-05-14T04:54:48;101311.66;;;9.41;100.00
67109;BME280;54027;50.786;7.058;2023-05-14T04:57:13;101322.91;;;9.49;100.00
67109;BME280;54027;50.786;7.058;2023-05-14T04:59:39;101320.38;;;9.59;100.00
67109;BME280;54027;50.786;7.058;2023-05-14T05:02:04;101314.41;;;9.70;100.00
67109;BME280;54027;50.786;7.058;2023-05-14T05:04:30;101323.03;;;9.72;100.00
67109;BME280;54027;50.786;7.058;2023-05-14T05:06:55;101324.75;;;9.70;100.00
67109;BME280;54027;50.786;7.058;2023-05-14T05:09:21;101323.88;;;9.74;100.00
67109;BME280;54027;50.786;7.058;2023-05-14T05:11:46;101324.78;;;9.79;100.00
67109;BME280;54027;50.786;7.058;2023-05-14T05:14:11;101323.91;;;9.80;100.00
67109;BME280;54027;50.786;7.058;2023-05-14T05:16:37;101322.19;;;9.79;100.00
67109;BME280;54027;50.786;7.058;2023-05-14T05:19:02;101323.06;;;9.79;100.00
67109;BME280;54027;50.786;7.058;2023-05-14T05:21:27;101319.63;;;9.86;100.00
67109;BME280;54027;50.786;7.058;2023-05-14T05:23:53;101317.88;;;9.85;100.00
67109;BME280;54027;50.786;7.058;2023-05-14T05:26:18;101321.38;;;9.92;100.00
67109;BME280;54027;50.786;7.058;2023-05-14T05:28:44;101321.38;;;10.01;100.00
67109;BME280;54027;50.786;7.058;2023-05-14T05:31:09;101318.84;;;10.05;100.00
67109;BME280;54027;50.786;7.058;2023-05-14T05:33:35;101321.44;;;10.19;100.00
67109;BME280;54027;50.786;7.058;2023-05-14T05:36:00;101326.59;;;10.19;100.00
67109;BME280;54027;50.786;7.058;2023-05-14T05:38:26;101322.28;;;10.21;100.00
67109;BME280;54027;50.786;7.058;2023-05-14T05:40:51;101326.63;;;10.25;100.00
67109;BME280;54027;50.786;7.058;2023-05-14T05:43:17;101324.94;;;10.38;100.00
67109;BME280;54027;50.786;7.058;2023-05-14T05:45:42;101317.16;;;10.54;100.00
67109;BME280;54027;50.786;7.058;2023-05-14T05:48:08;101325.81;;;10.59;100.00
67109;BME280;54027;50.786;7.058;2023-05-14T05:50:33;101312.84;;;10.65;100.00
67109;BME280;54027;50.786;7.058;2023-05-14T05:52:59;101315.47;;;10.82;100.00
67109;BME280;54027;50.786;7.058;2023-05-14T05:55:24;101313.72;;;10.98;100.00
67109;BME280;54027;50.786;7.058;2023-05-14T05:57:50;101309.38;;;11.01;100.00
67109;BME280;54027;50.786;7.058;2023-05-14T06:00:15;101310.25;;;11.18;100.00
67109;BME280;54027;50.786;7.058;2023-05-14T06:02:41;101313.63;;;11.43;100.00
67109;BME280;54027;50.786;7.058;2023-05-14T06:05:08;101311.00;;;11.58;100.00
67109;BME280;54027;50.786;7.058;2023-05-14T06:07:34;101307.53;;;11.62;99.09
67109;BME280;54027;50.786;7.058;2023-05-14T06:10:00;101306.56;;;11.84;98.42
67109;BME280;54027;50.786;7.058;2023-05-14T06:12:25;101306.53;;;11.90;97.89
67109;BME280;54027;50.786;7.058;2023-05-14T06:14:52;101301.31;;;12.01;96.49
67109;BME280;54027;50.786;7.058;2023-05-14T06:17:19;101318.50;;;12.11;95.88
67109;BME280;54027;50.786;7.058;2023-05-14T06:19:44;101317.59;;;12.17;94.89
67109;BME280;54027;50.786;7.058;2023-05-14T06:22:10;101320.31;;;12.02;94.58
67109;BME280;54027;50.786;7.058;2023-05-14T06:24:35;101324.59;;;12.06;94.67
67109;BME280;54027;50.786;7.058;2023-05-14T06:27:00;101327.19;;;12.03;94.92
67109;BME280;54027;50.786;7.058;2023-05-14T06:29:26;101331.59;;;11.85;94.67
67109;BME280;54027;50.786;7.058;2023-05-14T06:31:51;101322.13;;;11.78;95.19
67109;BME280;54027;50.786;7.058;2023-05-14T06:34:16;101322.16;;;11.75;95.99
67109;BME280;54027;50.786;7.058;2023-05-14T06:36:42;101323.88;;;11.79;96.86
67109;BME280;54027;50.786;7.058;2023-05-14T06:39:07;101325.53;;;11.91;97.01
67109;BME280;54027;50.786;7.058;2023-05-14T06:41:33;101330.69;;;11.94;96.82
67109;BME280;54027;50.786;7.058;2023-05-14T06:43:58;101331.56;;;11.93;96.47
67109;BME280;54027;50.786;7.058;2023-05-14T06:46:23;101323.81;;;11.90;97.38
67109;BME280;54027;50.786;7.058;2023-05-14T06:48:49;101319.47;;;11.94;98.15
67109;BME280;54027;50.786;7.058;2023-05-14T06:51:14;101313.47;;;11.88;98.75
67109;BME280;54027;50.786;7.058;2023-05-14T06:53:40;101313.47;;;11.88;97.89
67109;BME280;54027;50.786;7.058;2023-05-14T06:56:05;101312.59;;;11.93;97.52
67109;BME280;54027;50.786;7.058;2023-05-14T06:58:31;101309.06;;;12.00;97.20
67109;BME280;54027;50.786;7.058;2023-05-14T07:00:57;101309.00;;;12.12;97.31
67109;BME280;54027;50.786;7.058;2023-05-14T07:03:22;101312.38;;;12.27;96.70
67109;BME280;54027;50.786;7.058;2023-05-14T07:05:48;101312.28;;;12.38;96.39
67109;BME280;54027;50.786;7.058;2023-05-14T07:08:13;101307.03;;;12.52;95.62
67109;BME280;54027;50.786;7.058;2023-05-14T07:10:39;101307.84;;;12.54;95.46
67109;BME280;54027;50.786;7.058;2023-05-14T07:13:05;101302.63;;;12.61;94.85
67109;BME280;54027;50.786;7.058;2023-05-14T07:15:30;101306.78;;;12.79;94.25
67109;BME280;54027;50.786;7.058;2023-05-14T07:17:56;101317.84;;;12.97;94.10
67109;BME280;54027;50.786;7.058;2023-05-14T07:20:21;101313.38;;;13.16;94.68
67109;BME280;54027;50.786;7.058;2023-05-14T07:22:48;101310.66;;;13.28;93.87
67109;BME280;54027;50.786;7.058;2023-05-14T07:25:17;101315.00;;;13.25;91.53
67109;BME280;54027;50.786;7.058;2023-05-14T07:27:43;101307.16;;;13.32;90.62
67109;BME280;54027;50.786;7.058;2023-05-14T07:30:08;101300.13;;;13.39;89.62
67109;BME280;54027;50.786;7.058;2023-05-14T07:32:34;101299.22;;;13.44;89.97
67109;BME280;54027;50.786;7.058;2023-05-14T07:35:00;101299.13;;;13.50;89.70
67109;BME280;54027;50.786;7.058;2023-05-14T07:37:25;101298.19;;;13.57;88.36
67109;BME280;54027;50.786;7.058;2023-05-14T07:39:51;101291.13;;;13.70;88.39
67109;BME280;54027;50.786;7.058;2023-05-14T07:42:17;101283.31;;;13.70;86.67
67109;BME280;54027;50.786;7.058;2023-05-14T07:44:42;101293.59;;;13.78;85.94
67109;BME280;54027;50.786;7.058;2023-05-14T07:47:08;101282.25;;;13.83;84.36
67109;BME280;54027;50.786;7.058;2023-05-14T07:49:33;101277.75;;;13.97;82.25
67109;BME280;54027;50.786;7.058;2023-05-14T07:51:59;101276.69;;;14.10;82.02
67109;BME280;54027;50.786;7.058;2023-05-14T07:54:24;101281.69;;;14.24;82.22
67109;BME280;54027;50.786;7.058;2023-05-14T07:56:50;101278.00;;;14.37;81.98
67109;BME280;54027;50.786;7.058;2023-05-14T07:59:16;101272.72;;;14.45;80.35
67109;BME280;54027;50.786;7.058;2023-05-14T08:01:41;101268.16;;;14.57;80.85
67109;BME280;54027;50.786;7.058;2023-05-14T08:04:06;101256.72;;;14.68;77.43
67109;BME280;54027;50.786;7.058;2023-05-14T08:06:32;101269.50;;;14.81;77.58
67109;BME280;54027;50.786;7.058;2023-05-14T08:08:58;101265.91;;;14.88;77.69
67109;BME280;54027;50.786;7.058;2023-05-14T08:11:23;101268.44;;;14.93;78.39
67109;BME280;54027;50.786;7.058;2023-05-14T08:13:48;101261.28;;;15.02;78.57
67109;BME280;54027;50.786;7.058;2023-05-14T08:16:14;101253.25;;;15.14;77.67
67109;BME280;54027;50.786;7.058;2023-05-14T08:18:39;101219.31;;;15.19;74.42
67109;BME280;54027;50.786;7.058;2023-05-14T08:21:05;101236.34;;;15.35;75.12
67109;BME280;54027;50.786;7.058;2023-05-14T08:23:31;101197.84;;;15.49;71.88
67109;BME280;54027;50.786;7.058;2023-05-14T08:25:56;101201.94;;;15.61;71.79
67109;BME280;54027;50.786;7.058;2023-05-14T08:28:21;101197.31;;;15.73;70.98
67109;BME280;54027;50.786;7.058;2023-05-14T08:30:47;101143.22;;;15.85;67.21
67109;BME280;54027;50.786;7.058;2023-05-14T08:33:12;101142.94;;;15.97;66.88
67109;BME280;54027;50.786;7.058;2023-05-14T08:35:38;101134.78;;;16.09;65.70
67109;BME280;54027;50.786;7.058;2023-05-14T08:38:03;101158.88;;;16.18;66.44
67109;BME280;54027;50.786;7.058;2023-05-14T08:40:28;101155.09;;;16.30;66.21
67109;BME280;54027;50.786;7.058;2023-05-14T08:42:55;101163.69;;;16.35;67.07
67109;BME280;54027;50.786;7.058;2023-05-14T08:45:23;101185.22;;;16.42;68.09
67109;BME280;54027;50.786;7.058;2023-05-14T08:47:52;101168.31;;;16.56;67.47
67109;BME280;54027;50.786;7.058;2023-05-14T08:50:20;101144.28;;;16.77;65.50
67109;BME280;54027;50.786;7.058;2023-05-14T08:52:46;101102.34;;;16.83;63.27
67109;BME280;54027;50.786;7.058;2023-05-14T08:55:12;101127.72;;;16.78;64.30
67109;BME280;54027;50.786;7.058;2023-05-14T08:57:38;101134.41;;;16.89;64.66
67109;BME280;54027;50.786;7.058;2023-05-14T09:00:04;101142.78;;;17.00;65.29
67109;BME280;54027;50.786;7.058;2023-05-14T09:02:33;101179.00;;;17.12;67.28
67109;BME280;54027;50.786;7.058;2023-05-14T09:05:00;101146.38;;;17.25;65.99
67109;BME280;54027;50.786;7.058;2023-05-14T09:07:27;101202.28;;;17.49;68.43
67109;BME280;54027;50.786;7.058;2023-05-14T09:09:53;101147.00;;;17.62;65.86
67109;BME280;54027;50.786;7.058;2023-05-14T09:12:19;101142.28;;;17.73;65.46
67109;BME280;54027;50.786;7.058;2023-05-14T09:14:46;101108.44;;;17.69;63.52
67109;BME280;54027;50.786;7.058;2023-05-14T09:17:11;101139.38;;;17.82;65.09
67109;BME280;54027;50.786;7.058;2023-05-14T09:19:41;101103.72;;;17.80;63.56
67109;BME280;54027;50.786;7.058;2023-05-14T09:22:14;101100.09;;;17.85;63.15
67109;BME280;54027;50.786;7.058;2023-05-14T09:24:40;101104.25;;;17.91;63.09
67109;BME280;54027;50.786;7.058;2023-05-14T09:27:07;101059.75;;;17.92;61.03
67109;BME280;54027;50.786;7.058;2023-05-14T09:29:33;101052.00;;;17.89;60.98
67109;BME280;54027;50.786;7.058;2023-05-14T09:31:59;101081.47;;;17.94;61.86
67109;BME280;54027;50.786;7.058;2023-05-14T09:34:33;101076.50;;;18.12;61.95
67109;BME280;54027;50.786;7.058;2023-05-14T09:37:03;101093.63;;;18.22;62.88
67109;BME280;54027;50.786;7.058;2023-05-14T09:39:30;101056.22;;;18.18;61.01
67109;BME280;54027;50.786;7.058;2023-05-14T09:41:56;101020.25;;;18.25;59.19
67109;BME280;54027;50.786;7.058;2023-05-14T09:44:22;101052.50;;;18.25;60.95
67109;BME280;54027;50.786;7.058;2023-05-14T09:46:47;101060.81;;;18.36;60.79
67109;BME280;54027;50.786;7.058;2023-05-14T09:49:13;101056.81;;;18.51;60.93
67109;BME280;54027;50.786;7.058;2023-05-14T09:51:39;101052.59;;;18.70;60.71
67109;BME280;54027;50.786;7.058;2023-05-14T09:54:05;101032.59;;;18.68;59.72
67109;BME280;54027;50.786;7.058;2023-05-14T09:56:34;100993.28;;;18.69;58.07
67109;BME280;54027;50.786;7.058;2023-05-14T09:59:00;101026.38;;;18.70;58.93
67109;BME280;54027;50.786;7.058;2023-05-14T10:01:28;101034.09;;;18.75;59.70
67109;BME280;54027;50.786;7.058;2023-05-14T10:03:54;101029.72;;;18.75;59.14
67109;BME280;54027;50.786;7.058;2023-05-14T10:06:26;101011.19;;;18.80;59.03
67109;BME280;54027;50.786;7.058;2023-05-14T10:08:55;101013.63;;;18.86;58.81
67109;BME280;54027;50.786;7.058;2023-05-14T10:11:24;101000.50;;;18.86;57.84
67109;BME280;54027;50.786;7.058;2023-05-14T10:14:02;100993.03;;;18.98;57.95
67109;BME280;54027;50.786;7.058;2023-05-14T10:16:35;100996.63;;;19.18;57.50
67109;BME280;54027;50.786;7.058;2023-05-14T10:19:09;101037.69;;;19.39;60.48
67109;BME280;54027;50.786;7.058;2023-05-14T10:21:36;100971.19;;;19.41;57.13
67109;BME280;54027;50.786;7.058;2023-05-14T10:24:03;100972.00;;;19.43;57.37
67109;BME280;54027;50.786;7.058;2023-05-14T10:26:30;100992.53;;;19.74;58.36
67109;BME280;54027;50.786;7.058;2023-05-14T10:28:56;100981.50;;;19.88;58.06
67109;BME280;54027;50.786;7.058;2023-05-14T10:31:23;100989.16;;;20.12;57.32
67109;BME280;54027;50.786;7.058;2023-05-14T10:33:49;100923.09;;;20.22;54.48
67109;BME280;54027;50.786;7.058;2023-05-14T10:36:17;100959.66;;;20.26;56.05
67109;BME280;54027;50.786;7.058;2023-05-14T10:38:45;100952.28;;;20.15;55.45
67109;BME280;54027;50.786;7.058;2023-05-14T10:41:12;100909.75;;;20.07;53.22
67109;BME280;54027;50.786;7.058;2023-05-14T10:43:40;100897.72;;;20.41;52.75
67109;BME280;54027;50.786;7.058;2023-05-14T10:46:07;100864.63;;;20.55;50.81
67109;BME280;54027;50.786;7.058;2023-05-14T10:48:33;100866.16;;;20.78;50.86
67109;BME280;54027;50.786;7.058;2023-05-14T10:50:59;100867.94;;;21.13;50.97
67109;BME280;54027;50.786;7.058;2023-05-14T10:53:31;100843.63;;;21.43;49.92
67109;BME280;54027;50.786;7.058;2023-05-14T10:56:01;100804.09;;;21.44;47.27
67109;BME280;54027;50.786;7.058;2023-05-14T10:58:29;100847.03;;;21.62;49.92
67109;BME280;54027;50.786;7.058;2023-05-14T11:00:56;100799.44;;;21.66;47.74
67109;BME280;54027;50.786;7.058;2023-05-14T11:03:22;100816.34;;;21.78;48.50
67109;BME280;54027;50.786;7.058;2023-05-14T11:05:47;100780.13;;;22.14;46.60
67109;BME280;54027;50.786;7.058;2023-05-14T11:08:14;100798.13;;;21.91;46.92
67109;BME280;54027;50.786;7.058;2023-05-14T11:10:40;100800.25;;;21.34;47.15
67109;BME280;54027;50.786;7.058;2023-05-14T11:13:06;100832.81;;;21.14;48.35
67109;BME280;54027;50.786;7.058;2023-05-14T11:15:32;100808.91;;;21.02;47.62
67109;BME280;54027;50.786;7.058;2023-05-14T11:17:57;100848.19;;;20.88;49.01
67109;BME280;54027;50.786;7.058;2023-05-14T11:20:23;100834.81;;;20.56;48.57
67109;BME280;54027;50.786;7.058;2023-05-14T11:22:48;100857.63;;;20.37;50.07
67109;BME280;54027;50.786;7.058;2023-05-14T11:25:15;100899.13;;;20.29;51.58
67109;BME280;54027;50.786;7.058;2023-05-14T11:27:43;100862.38;;;20.10;48.89
67109;BME280;54027;50.786;7.058;2023-05-14T11:32:38;100874.66;;;19.91;50.71
67109;BME280;54027;50.786;7.058;2023-05-14T11:35:05;100886.69;;;19.95;51.63
67109;BME280;54027;50.786;7.058;2023-05-14T11:37:30;100877.13;;;19.94;50.86
67109;BME280;54027;50.786;7.058;2023-05-14T11:40:00;100895.41;;;19.96;52.72
67109;BME280;54027;50.786;7.058;2023-05-14T11:42:25;100854.91;;;20.01;50.55
67109;BME280;54027;50.786;7.058;2023-05-14T11:44:51;100840.03;;;20.02;50.11
67109;BME280;54027;50.786;7.058;2023-05-14T11:47:19;100862.47;;;20.09;50.69
67109;BME280;54027;50.786;7.058;2023-05-14T11:49:46;100847.06;;;20.20;50.76
67109;BME280;54027;50.786;7.058;2023-05-14T11:52:12;100855.00;;;20.37;50.87
67109;BME280;54027;50.786;7.058;2023-05-14T11:54:40;100852.91;;;20.62;50.84
67109;BME280;54027;50.786;7.058;2023-05-14T11:57:09;100856.66;;;20.76;50.99
67109;BME280;54027;50.786;7.058;2023-05-14T11:59:35;100834.38;;;21.01;50.22
67109;BME280;54027;50.786;7.058;2023-05-14T12:02:01;100830.06;;;21.50;49.81
67109;BME280;54027;50.786;7.058;2023-05-14T12:04:27;100807.94;;;21.71;48.85
67109;BME280;54027;50.786;7.058;2023-05-14T12:06:53;100790.03;;;21.78;48.08
67109;BME280;54027;50.786;7.058;2023-05-14T12:09:21;100755.81;;;21.45;46.46
67109;BME280;54027;50.786;7.058;2023-05-14T12:11:48;100784.44;;;21.51;48.00
67109;BME280;54027;50.786;7.058;2023-05-14T12:14:23;100803.25;;;21.61;49.31
67109;BME280;54027;50.786;7.058;2023-05-14T12:16:49;100800.69;;;21.59;49.10
67109;BME280;54027;50.786;7.058;2023-05-14T12:19:18;100805.47;;;21.68;49.19
67109;BME280;54027;50.786;7.058;2023-05-14T12:21:47;100752.59;;;22.04;46.84
67109;BME280;54027;50.786;7.058;2023-05-14T12:24:17;100727.53;;;22.74;45.81
67109;BME280;54027;50.786;7.058;2023-05-14T12:26:47;100727.22;;;22.64;46.12
67109;BME280;54027;50.786;7.058;2023-05-14T12:29:13;100728.41;;;22.88;46.04
67109;BME280;54027;50.786;7.058;2023-05-14T12:31:47;100712.97;;;23.67;44.96
67109;BME280;54027;50.786;7.058;2023-05-14T12:34:13;100668.25;;;24.32;43.69
67109;BME280;54027;50.786;7.058;2023-05-14T12:36:39;100683.66;;;24.65;43.31
67109;BME280;54027;50.786;7.058;2023-05-14T12:39:05;100675.72;;;24.52;42.72
67109;BME280;54027;50.786;7.058;2023-05-14T12:41:31;100654.84;;;24.99;41.32
67109;BME280;54027;50.786;7.058;2023-05-14T12:43:57;100663.59;;;25.25;42.13
67109;BME280;54027;50.786;7.058;2023-05-14T12:46:24;100627.19;;;25.16;39.55
67109;BME280;54027;50.786;7.058;2023-05-14T12:48:50;100639.63;;;25.39;40.68
67109;BME280;54027;50.786;7.058;2023-05-14T12:51:15;100612.44;;;25.50;39.58